sensor_id;sensor_type;location;lat;lon;timestamp;temperature;humidity
66724;DHT22;53635;48.212;11.530;2022-07-06T00:01:20;18.23;67.01
66724;DHT22;53635;48.212;11.530;2022-07-06T00:03:45;18.17;66.74
66724;DHT22;53635;48.212;11.530;2022-07-06T00:06:11;18.32;66.23
66724;DHT22;53635;48.212;11.530;2022-07-06T00:08:37;18.37;64.83
66724;DHT22;53635;48.212;11.530;2022-07-06T00:11:03;18.28;66.55
66724;DHT22;53635;48.212;11.530;2022-07-06T00:13:28;18.25;66.81
66724;DHT22;53635;48.212;11.530;2022-07-06T00:15:53;18.26;65.38
66724;DHT22;53635;48.212;11.530;2022-07-06T00:18:19;18.01;66.95
66724;DHT22;53635;48.212;11.530;2022-07-06T00:20:44;17.81;67.67
66724;DHT22;53635;48.212;11.530;2022-07-06T00:23:10;17.68;68.47
66724;DHT22;53635;48.212;11.530;2022-07-06T00:25:35;17.48;68.47
66724;DHT22;53635;48.212;11.530;2022-07-06T00:28:01;17.43;69.34
66724;DHT22;53635;48.212;11.530;2022-07-06T00:30:26;17.44;70.38
66724;DHT22;53635;48.212;11.530;2022-07-06T00:32:52;17.50;69.00
66724;DHT22;53635;48.212;11.530;2022-07-06T00:35:17;17.27;69.94
66724;DHT22;53635;48.212;11.530;2022-07-06T00:37:42;17.19;70.41
66724;DHT22;53635;48.212;11.530;2022-07-06T00:40:08;17.28;71.05
66724;DHT22;53635;48.212;11.530;2022-07-06T00:45:06;17.05;70.82
66724;DHT22;53635;48.212;11.530;2022-07-06T00:47:32;16.90;72.04
66724;DHT22;53635;48.212;11.530;2022-07-06T00:49:57;16.93;71.55
66724;DHT22;53635;48.212;11.530;2022-07-06T00:52:50;17.17;71.35
66724;DHT22;53635;48.212;11.530;2022-07-06T00:55:19;17.15;71.74
66724;DHT22;53635;48.212;11.530;2022-07-06T00:57:46;17.37;70.82
66724;DHT22;53635;48.212;11.530;2022-07-06T01:00:13;17.41;71.13
66724;DHT22;53635;48.212;11.530;2022-07-06T01:02:40;17.65;70.40
66724;DHT22;53635;48.212;11.530;2022-07-06T01:05:07;17.74;69.35
66724;DHT22;53635;48.212;11.530;2022-07-06T01:07:34;17.73;70.54
66724;DHT22;53635;48.212;11.530;2022-07-06T01:09:59;17.79;69.02
66724;DHT22;53635;48.212;11.530;2022-07-06T01:12:25;17.73;70.82
66724;DHT22;53635;48.212;11.530;2022-07-06T01:14:50;17.30;71.82
66724;DHT22;53635;48.212;11.530;2022-07-06T01:17:17;17.33;72.42
66724;DHT22;53635;48.212;11.530;2022-07-06T01:19:43;17.10;73.35
66724;DHT22;53635;48.212;11.530;2022-07-06T01:22:09;16.92;73.84
66724;DHT22;53635;48.212;11.530;2022-07-06T01:24:35;16.72;74.00
66724;DHT22;53635;48.212;11.530;2022-07-06T01:27:04;16.83;74.87
66724;DHT22;53635;48.212;11.530;2022-07-06T01:29:30;16.69;74.93
66724;DHT22;53635;48.212;11.530;2022-07-06T01:31:56;16.61;74.88
66724;DHT22;53635;48.212;11.530;2022-07-06T01:34:21;16.55;75.31
66724;DHT22;53635;48.212;11.530;2022-07-06T01:36:47;16.47;76.13
66724;DHT22;53635;48.212;11.530;2022-07-06T01:39:12;16.35;76.24
66724;DHT22;53635;48.212;11.530;2022-07-06T01:41:38;16.35;76.83
66724;DHT22;53635;48.212;11.530;2022-07-06T01:44:05;16.17;77.50
66724;DHT22;53635;48.212;11.530;2022-07-06T01:46:31;16.17;77.84
66724;DHT22;53635;48.212;11.530;2022-07-06T01:48:57;16.16;77.66
66724;DHT22;53635;48.212;11.530;2022-07-06T01:51:23;16.21;77.74
66724;DHT22;53635;48.212;11.530;2022-07-06T01:53:49;16.32;76.89
66724;DHT22;53635;48.212;11.530;2022-07-06T01:56:15;16.27;77.33
66724;DHT22;53635;48.212;11.530;2022-07-06T01:58:40;16.20;77.67
66724;DHT22;53635;48.212;11.530;2022-07-06T02:01:10;16.22;77.71
66724;DHT22;53635;48.212;11.530;2022-07-06T02:03:36;16.24;78.17
66724;DHT22;53635;48.212;11.530;2022-07-06T02:06:03;16.16;78.38
66724;DHT22;53635;48.212;11.530;2022-07-06T02:08:28;16.29;77.79
66724;DHT22;53635;48.212;11.530;2022-07-06T02:10:54;16.34;77.86
66724;DHT22;53635;48.212;11.530;2022-07-06T02:13:20;16.28;78.12
66724;DHT22;53635;48.212;11.530;2022-07-06T02:15:45;16.21;77.93
66724;DHT22;53635;48.212;11.530;2022-07-06T02:18:10;16.11;78.66
66724;DHT22;53635;48.212;11.530;2022-07-06T02:20:36;15.96;79.05
66724;DHT22;53635;48.212;11.530;2022-07-06T02:23:01;15.96;79.83
66724;DHT22;53635;48.212;11.530;2022-07-06T02:25:27;15.80;79.75
66724;DHT22;53635;48.212;11.530;2022-07-06T02:27:52;15.83;80.09
66724;DHT22;53635;48.212;11.530;2022-07-06T02:30:18;15.79;80.01
66724;DHT22;53635;48.212;11.530;2022-07-06T02:32:43;15.74;79.69
66724;DHT22;53635;48.212;11.530;2022-07-06T02:35:08;15.70;80.33
66724;DHT22;53635;48.212;11.530;2022-07-06T02:37:34;15.69;79.73
66724;DHT22;53635;48.212;11.530;2022-07-06T02:39:59;15.71;80.21
66724;DHT22;53635;48.212;11.530;2022-07-06T02:42:25;15.70;79.95
66724;DHT22;53635;48.212;11.530;2022-07-06T02:44:52;15.62;80.37
66724;DHT22;53635;48.212;11.530;2022-07-06T02:47:18;15.50;81.25
66724;DHT22;53635;48.212;11.530;2022-07-06T02:49:43;15.42;81.58
66724;DHT22;53635;48.212;11.530;2022-07-06T02:52:09;15.43;81.43
66724;DHT22;53635;48.212;11.530;2022-07-06T02:54:34;15.70;80.58
66724;DHT22;53635;48.212;11.530;2022-07-06T02:57:00;15.65;80.58
66724;DHT22;53635;48.212;11.530;2022-07-06T02:59:25;15.56;81.22
66724;DHT22;53635;48.212;11.530;2022-07-06T03:01:50;15.62;80.77
66724;DHT22;53635;48.212;11.530;2022-07-06T03:04:16;15.55;81.26
66724;DHT22;53635;48.212;11.530;2022-07-06T03:06:41;15.45;81.17
66724;DHT22;53635;48.212;11.530;2022-07-06T03:09:07;15.34;81.75
66724;DHT22;53635;48.212;11.530;2022-07-06T03:11:32;15.24;81.86
66724;DHT22;53635;48.212;11.530;2022-07-06T03:14:04;15.19;82.61
66724;DHT22;53635;48.212;11.530;2022-07-06T03:16:30;15.19;82.58
66724;DHT22;53635;48.212;11.530;2022-07-06T03:18:55;15.18;83.00
66724;DHT22;53635;48.212;11.530;2022-07-06T03:21:21;15.17;83.42
66724;DHT22;53635;48.212;11.530;2022-07-06T03:23:46;15.18;82.91
66724;DHT22;53635;48.212;11.530;2022-07-06T03:26:12;15.07;83.38
66724;DHT22;53635;48.212;11.530;2022-07-06T03:28:37;15.12;83.17
66724;DHT22;53635;48.212;11.530;2022-07-06T03:31:03;15.19;83.03
66724;DHT22;53635;48.212;11.530;2022-07-06T03:33:28;15.11;82.79
66724;DHT22;53635;48.212;11.530;2022-07-06T03:35:53;15.09;83.16
66724;DHT22;53635;48.212;11.530;2022-07-06T03:38:19;15.35;81.62
66724;DHT22;53635;48.212;11.530;2022-07-06T03:40:44;15.34;82.30
66724;DHT22;53635;48.212;11.530;2022-07-06T03:43:09;15.49;81.06
66724;DHT22;53635;48.212;11.530;2022-07-06T03:45:35;15.60;81.16
66724;DHT22;53635;48.212;11.530;2022-07-06T03:48:00;15.73;79.29
66724;DHT22;53635;48.212;11.530;2022-07-06T03:50:26;15.74;79.32
66724;DHT22;53635;48.212;11.530;2022-07-06T03:52:51;15.77;79.65
66724;DHT22;53635;48.212;11.530;2022-07-06T03:55:16;15.87;78.46
66724;DHT22;53635;48.212;11.530;2022-07-06T03:57:42;15.87;78.80
66724;DHT22;53635;48.212;11.530;2022-07-06T04:00:08;16.00;78.90
66724;DHT22;53635;48.212;11.530;2022-07-06T04:02:34;15.97;78.48
66724;DHT22;53635;48.212;11.530;2022-07-06T04:05:00;16.06;78.56
66724;DHT22;53635;48.212;11.530;2022-07-06T04:07:26;15.98;79.07
66724;DHT22;53635;48.212;11.530;2022-07-06T04:09:51;16.06;78.40
66724;DHT22;53635;48.212;11.530;2022-07-06T04:12:16;15.93;78.81
66724;DHT22;53635;48.212;11.530;2022-07-06T04:14:42;15.89;79.48
66724;DHT22;53635;48.212;11.530;2022-07-06T04:17:08;15.89;79.16
66724;DHT22;53635;48.212;11.530;2022-07-06T04:19:53;16.07;78.32
66724;DHT22;53635;48.212;11.530;2022-07-06T04:22:18;16.21;78.07
66724;DHT22;53635;48.212;11.530;2022-07-06T04:24:43;16.47;78.16
66724;DHT22;53635;48.212;11.530;2022-07-06T04:27:09;16.59;77.62
66724;DHT22;53635;48.212;11.530;2022-07-06T04:29:34;16.56;78.81
66724;DHT22;53635;48.212;11.530;2022-07-06T04:32:00;16.72;77.45
66724;DHT22;53635;48.212;11.530;2022-07-06T04:34:25;16.75;77.53
66724;DHT22;53635;48.212;11.530;2022-07-06T04:36:51;16.79;77.74
66724;DHT22;53635;48.212;11.530;2022-07-06T04:39:16;16.68;77.24
66724;DHT22;53635;48.212;11.530;2022-07-06T04:41:41;16.71;76.47
66724;DHT22;53635;48.212;11.530;2022-07-06T04:44:07;16.75;76.90
66724;DHT22;53635;48.212;11.530;2022-07-06T04:46:32;16.73;76.99
66724;DHT22;53635;48.212;11.530;2022-07-06T04:48:57;16.78;77.16
66724;DHT22;53635;48.212;11.530;2022-07-06T04:51:23;16.76;77.20
66724;DHT22;53635;48.212;11.530;2022-07-06T04:53:48;16.78;76.57
66724;DHT22;53635;48.212;11.530;2022-07-06T04:56:14;16.90;77.25
66724;DHT22;53635;48.212;11.530;2022-07-06T04:58:39;16.87;77.58
66724;DHT22;53635;48.212;11.530;2022-07-06T05:01:04;17.00;77.45
66724;DHT22;53635;48.212;11.530;2022-07-06T05:03:30;17.12;76.84
66724;DHT22;53635;48.212;11.530;2022-07-06T05:05:55;17.26;76.95
66724;DHT22;53635;48.212;11.530;2022-07-06T05:08:21;17.31;77.94
66724;DHT22;53635;48.212;11.530;2022-07-06T05:10:48;17.37;78.16
66724;DHT22;53635;48.212;11.530;2022-07-06T05:13:13;17.40;78.25
66724;DHT22;53635;48.212;11.530;2022-07-06T05:15:39;17.50;76.87
66724;DHT22;53635;48.212;11.530;2022-07-06T05:18:04;17.57;77.04
66724;DHT22;53635;48.212;11.530;2022-07-06T05:20:30;17.58;77.54
66724;DHT22;53635;48.212;11.530;2022-07-06T05:22:55;17.55;77.02
66724;DHT22;53635;48.212;11.530;2022-07-06T05:25:20;17.50;76.90
66724;DHT22;53635;48.212;11.530;2022-07-06T05:27:46;17.50;76.21
66724;DHT22;53635;48.212;11.530;2022-07-06T05:30:12;17.64;76.52
66724;DHT22;53635;48.212;11.530;2022-07-06T05:32:37;17.68;76.54
66724;DHT22;53635;48.212;11.530;2022-07-06T05:35:03;17.81;76.03
66724;DHT22;53635;48.212;11.530;2022-07-06T05:37:29;17.81;75.81
66724;DHT22;53635;48.212;11.530;2022-07-06T05:39:54;17.86;75.19
66724;DHT22;53635;48.212;11.530;2022-07-06T05:42:19;17.85;75.29
66724;DHT22;53635;48.212;11.530;2022-07-06T05:44:45;17.79;75.10
66724;DHT22;53635;48.212;11.530;2022-07-06T05:47:10;17.86;75.72
66724;DHT22;53635;48.212;11.530;2022-07-06T05:49:53;17.94;75.74
66724;DHT22;53635;48.212;11.530;2022-07-06T05:53:03;17.91;73.08
66724;DHT22;53635;48.212;11.530;2022-07-06T05:55:29;17.98;72.42
66724;DHT22;53635;48.212;11.530;2022-07-06T05:57:54;18.01;72.96
66724;DHT22;53635;48.212;11.530;2022-07-06T06:00:21;18.06;72.72
66724;DHT22;53635;48.212;11.530;2022-07-06T06:02:47;18.17;73.24
66724;DHT22;53635;48.212;11.530;2022-07-06T06:05:14;18.23;72.66
66724;DHT22;53635;48.212;11.530;2022-07-06T06:07:39;18.22;71.36
66724;DHT22;53635;48.212;11.530;2022-07-06T06:10:08;18.16;70.15
66724;DHT22;53635;48.212;11.530;2022-07-06T06:12:34;18.21;70.76
66724;DHT22;53635;48.212;11.530;2022-07-06T06:15:00;18.29;70.85
66724;DHT22;53635;48.212;11.530;2022-07-06T06:17:26;18.21;70.22
66724;DHT22;53635;48.212;11.530;2022-07-06T06:19:51;18.30;71.33
66724;DHT22;53635;48.212;11.530;2022-07-06T06:22:17;18.36;70.60
66724;DHT22;53635;48.212;11.530;2022-07-06T06:24:42;18.47;71.70
66724;DHT22;53635;48.212;11.530;2022-07-06T06:27:07;18.33;69.70
66724;DHT22;53635;48.212;11.530;2022-07-06T06:29:33;18.45;70.05
66724;DHT22;53635;48.212;11.530;2022-07-06T06:31:58;18.53;70.07
66724;DHT22;53635;48.212;11.530;2022-07-06T06:34:24;18.61;71.44
66724;DHT22;53635;48.212;11.530;2022-07-06T06:36:49;18.75;71.16
66724;DHT22;53635;48.212;11.530;2022-07-06T06:39:14;18.93;70.48
66724;DHT22;53635;48.212;11.530;2022-07-06T06:41:40;18.93;69.78
66724;DHT22;53635;48.212;11.530;2022-07-06T06:44:05;19.14;71.27
66724;DHT22;53635;48.212;11.530;2022-07-06T06:46:30;19.22;69.00
66724;DHT22;53635;48.212;11.530;2022-07-06T06:48:56;19.26;68.96
66724;DHT22;53635;48.212;11.530;2022-07-06T06:51:21;19.34;68.33
66724;DHT22;53635;48.212;11.530;2022-07-06T06:53:47;19.36;68.28
66724;DHT22;53635;48.212;11.530;2022-07-06T06:56:12;19.36;67.22
66724;DHT22;53635;48.212;11.530;2022-07-06T06:58:38;19.61;66.29
66724;DHT22;53635;48.212;11.530;2022-07-06T07:01:03;19.76;67.17
66724;DHT22;53635;48.212;11.530;2022-07-06T07:03:30;19.93;67.46
66724;DHT22;53635;48.212;11.530;2022-07-06T07:05:55;19.97;65.40
66724;DHT22;53635;48.212;11.530;2022-07-06T07:08:21;20.33;64.86
66724;DHT22;53635;48.212;11.530;2022-07-06T07:10:46;20.42;63.33
66724;DHT22;53635;48.212;11.530;2022-07-06T07:13:11;20.64;63.95
66724;DHT22;53635;48.212;11.530;2022-07-06T07:15:37;20.85;63.11
66724;DHT22;53635;48.212;11.530;2022-07-06T07:18:03;20.96;62.12
66724;DHT22;53635;48.212;11.530;2022-07-06T07:20:28;21.23;62.60
66724;DHT22;53635;48.212;11.530;2022-07-06T07:22:55;21.32;60.75
66724;DHT22;53635;48.212;11.530;2022-07-06T07:25:20;21.64;60.23
66724;DHT22;53635;48.212;11.530;2022-07-06T07:27:46;22.16;59.21
66724;DHT22;53635;48.212;11.530;2022-07-06T07:30:11;22.45;57.96
66724;DHT22;53635;48.212;11.530;2022-07-06T07:32:37;22.61;57.55
66724;DHT22;53635;48.212;11.530;2022-07-06T07:35:03;22.50;57.69
66724;DHT22;53635;48.212;11.530;2022-07-06T07:37:28;22.55;59.41
66724;DHT22;53635;48.212;11.530;2022-07-06T07:39:54;22.52;56.88
66724;DHT22;53635;48.212;11.530;2022-07-06T07:42:19;22.57;57.58
66724;DHT22;53635;48.212;11.530;2022-07-06T07:44:45;22.42;56.86
66724;DHT22;53635;48.212;11.530;2022-07-06T07:47:10;22.83;58.55
66724;DHT22;53635;48.212;11.530;2022-07-06T07:49:35;23.07;59.41
66724;DHT22;53635;48.212;11.530;2022-07-06T07:52:01;22.86;57.46
66724;DHT22;53635;48.212;11.530;2022-07-06T07:54:26;23.12;56.27
66724;DHT22;53635;48.212;11.530;2022-07-06T07:56:52;23.29;56.84
66724;DHT22;53635;48.212;11.530;2022-07-06T07:59:17;23.37;56.88
66724;DHT22;53635;48.212;11.530;2022-07-06T08:01:42;23.73;56.17
66724;DHT22;53635;48.212;11.530;2022-07-06T08:04:08;24.24;55.76
66724;DHT22;53635;48.212;11.530;2022-07-06T08:06:33;24.40;56.89
66724;DHT22;53635;48.212;11.530;2022-07-06T08:08:59;24.05;54.81
66724;DHT22;53635;48.212;11.530;2022-07-06T08:11:24;23.96;55.57
66724;DHT22;53635;48.212;11.530;2022-07-06T08:13:52;23.95;57.51
66724;DHT22;53635;48.212;11.530;2022-07-06T08:16:18;24.06;55.08
66724;DHT22;53635;48.212;11.530;2022-07-06T08:18:43;24.47;54.64
66724;DHT22;53635;48.212;11.530;2022-07-06T08:21:08;24.85;54.56
66724;DHT22;53635;48.212;11.530;2022-07-06T08:23:34;25.22;53.35
66724;DHT22;53635;48.212;11.530;2022-07-06T08:26:01;25.43;53.43
66724;DHT22;53635;48.212;11.530;2022-07-06T08:28:27;25.59;51.12
66724;DHT22;53635;48.212;11.530;2022-07-06T08:30:53;25.49;52.19
66724;DHT22;53635;48.212;11.530;2022-07-06T08:33:19;26.07;51.34
66724;DHT22;53635;48.212;11.530;2022-07-06T08:35:45;26.31;50.39
66724;DHT22;53635;48.212;11.530;2022-07-06T08:38:10;26.52;49.89
66724;DHT22;53635;48.212;11.530;2022-07-06T08:40:38;25.78;47.39
66724;DHT22;53635;48.212;11.530;2022-07-06T08:43:03;26.24;49.86
66724;DHT22;53635;48.212;11.530;2022-07-06T08:45:29;26.69;47.37
66724;DHT22;53635;48.212;11.530;2022-07-06T08:47:58;26.80;48.18
66724;DHT22;53635;48.212;11.530;2022-07-06T08:50:28;27.02;46.86
66724;DHT22;53635;48.212;11.530;2022-07-06T08:52:54;27.20;47.31
66724;DHT22;53635;48.212;11.530;2022-07-06T08:55:19;27.61;45.16
66724;DHT22;53635;48.212;11.530;2022-07-06T08:57:46;27.81;45.23
66724;DHT22;53635;48.212;11.530;2022-07-06T09:00:12;27.51;44.60
66724;DHT22;53635;48.212;11.530;2022-07-06T09:03:00;27.84;46.01
66724;DHT22;53635;48.212;11.530;2022-07-06T09:05:55;27.78;45.66
66724;DHT22;53635;48.212;11.530;2022-07-06T09:11:40;29.00;43.47
66724;DHT22;53635;48.212;11.530;2022-07-06T09:14:05;29.53;41.27
66724;DHT22;53635;48.212;11.530;2022-07-06T09:16:31;29.90;42.39
66724;DHT22;53635;48.212;11.530;2022-07-06T09:18:57;29.02;40.93
66724;DHT22;53635;48.212;11.530;2022-07-06T09:21:33;29.39;44.80
66724;DHT22;53635;48.212;11.530;2022-07-06T09:24:02;30.37;41.27
66724;DHT22;53635;48.212;11.530;2022-07-06T09:26:28;30.32;39.48
66724;DHT22;53635;48.212;11.530;2022-07-06T09:28:55;29.52;39.91
66724;DHT22;53635;48.212;11.530;2022-07-06T09:31:21;29.93;41.08
66724;DHT22;53635;48.212;11.530;2022-07-06T09:33:54;30.42;41.63
66724;DHT22;53635;48.212;11.530;2022-07-06T09:36:44;31.16;38.81
66724;DHT22;53635;48.212;11.530;2022-07-06T09:39:39;31.40;40.05
66724;DHT22;53635;48.212;11.530;2022-07-06T09:42:06;30.98;41.21
66724;DHT22;53635;48.212;11.530;2022-07-06T09:44:36;31.92;40.22
66724;DHT22;53635;48.212;11.530;2022-07-06T09:47:07;31.82;39.02
66724;DHT22;53635;48.212;11.530;2022-07-06T09:49:34;31.57;37.53
66724;DHT22;53635;48.212;11.530;2022-07-06T09:52:07;31.51;37.79
66724;DHT22;53635;48.212;11.530;2022-07-06T09:54:34;31.61;38.42
66724;DHT22;53635;48.212;11.530;2022-07-06T09:57:00;31.53;38.68
66724;DHT22;53635;48.212;11.530;2022-07-06T09:59:28;32.72;39.07
66724;DHT22;53635;48.212;11.530;2022-07-06T10:01:55;33.11;36.63
66724;DHT22;53635;48.212;11.530;2022-07-06T10:04:22;33.21;36.16
66724;DHT22;53635;48.212;11.530;2022-07-06T10:06:48;33.86;36.22
66724;DHT22;53635;48.212;11.530;2022-07-06T10:09:15;33.79;33.96
66724;DHT22;53635;48.212;11.530;2022-07-06T10:11:43;32.72;34.08
66724;DHT22;53635;48.212;11.530;2022-07-06T10:14:10;33.41;35.40
66724;DHT22;53635;48.212;11.530;2022-07-06T10:16:38;33.52;35.00
66724;DHT22;53635;48.212;11.530;2022-07-06T10:19:05;33.85;33.00
66724;DHT22;53635;48.212;11.530;2022-07-06T10:21:32;33.99;34.85
66724;DHT22;53635;48.212;11.530;2022-07-06T10:24:05;34.76;34.20
66724;DHT22;53635;48.212;11.530;2022-07-06T10:26:32;35.66;32.76
66724;DHT22;53635;48.212;11.530;2022-07-06T10:28:58;34.47;33.32
66724;DHT22;53635;48.212;11.530;2022-07-06T10:31:25;34.08;32.40
66724;DHT22;53635;48.212;11.530;2022-07-06T10:33:52;34.67;33.27
66724;DHT22;53635;48.212;11.530;2022-07-06T10:36:17;35.52;34.02
66724;DHT22;53635;48.212;11.530;2022-07-06T10:38:49;35.41;34.45
66724;DHT22;53635;48.212;11.530;2022-07-06T10:41:14;35.07;33.70
66724;DHT22;53635;48.212;11.530;2022-07-06T10:43:47;35.55;32.58
66724;DHT22;53635;48.212;11.530;2022-07-06T10:46:15;35.12;32.78
66724;DHT22;53635;48.212;11.530;2022-07-06T10:48:44;35.49;31.99
66724;DHT22;53635;48.212;11.530;2022-07-06T10:51:22;36.86;29.92
66724;DHT22;53635;48.212;11.530;2022-07-06T10:53:59;37.94;30.14
66724;DHT22;53635;48.212;11.530;2022-07-06T10:56:43;37.46;29.13
66724;DHT22;53635;48.212;11.530;2022-07-06T10:59:18;36.27;30.17
66724;DHT22;53635;48.212;11.530;2022-07-06T11:02:15;36.06;31.59
66724;DHT22;53635;48.212;11.530;2022-07-06T11:04:48;36.82;31.36
66724;DHT22;53635;48.212;11.530;2022-07-06T11:07:18;38.04;29.28
66724;DHT22;53635;48.212;11.530;2022-07-06T11:09:57;36.48;31.40
66724;DHT22;53635;48.212;11.530;2022-07-06T11:12:23;35.37;31.84
66724;DHT22;53635;48.212;11.530;2022-07-06T11:14:49;38.27;29.38
66724;DHT22;53635;48.212;11.530;2022-07-06T11:17:17;38.49;28.30
66724;DHT22;53635;48.212;11.530;2022-07-06T11:19:58;39.19;28.47
66724;DHT22;53635;48.212;11.530;2022-07-06T11:22:36;40.02;28.28
66724;DHT22;53635;48.212;11.530;2022-07-06T11:25:01;39.68;28.34
66724;DHT22;53635;48.212;11.530;2022-07-06T11:27:27;40.36;25.22
66724;DHT22;53635;48.212;11.530;2022-07-06T11:29:53;41.21;25.90
66724;DHT22;53635;48.212;11.530;2022-07-06T11:32:23;39.98;26.17
66724;DHT22;53635;48.212;11.530;2022-07-06T11:34:50;42.40;25.24
66724;DHT22;53635;48.212;11.530;2022-07-06T11:37:15;44.28;25.32
66724;DHT22;53635;48.212;11.530;2022-07-06T11:39:44;43.82;24.44
66724;DHT22;53635;48.212;11.530;2022-07-06T11:42:11;40.11;25.90
66724;DHT22;53635;48.212;11.530;2022-07-06T11:44:38;43.99;22.96
66724;DHT22;53635;48.212;11.530;2022-07-06T11:47:04;46.71;21.63
66724;DHT22;53635;48.212;11.530;2022-07-06T11:49:32;43.73;23.73
66724;DHT22;53635;48.212;11.530;2022-07-06T11:51:58;39.56;27.55
66724;DHT22;53635;48.212;11.530;2022-07-06T11:54:24;36.30;28.49
66724;DHT22;53635;48.212;11.530;2022-07-06T11:59:29;43.38;23.54
66724;DHT22;53635;48.212;11.530;2022-07-06T12:02:00;45.13;21.90
66724;DHT22;53635;48.212;11.530;2022-07-06T12:04:25;43.54;24.40
66724;DHT22;53635;48.212;11.530;2022-07-06T12:06:51;41.01;25.78
66724;DHT22;53635;48.212;11.530;2022-07-06T12:09:17;40.84;26.08
66724;DHT22;53635;48.212;11.530;2022-07-06T12:11:45;37.80;28.65
66724;DHT22;53635;48.212;11.530;2022-07-06T12:14:16;34.49;31.20
66724;DHT22;53635;48.212;11.530;2022-07-06T12:16:42;38.39;28.32
66724;DHT22;53635;48.212;11.530;2022-07-06T12:19:07;43.12;25.35
66724;DHT22;53635;48.212;11.530;2022-07-06T12:21:34;43.93;23.19
66724;DHT22;53635;48.212;11.530;2022-07-06T12:23:59;43.77;22.71
66724;DHT22;53635;48.212;11.530;2022-07-06T12:26:26;42.09;25.00
66724;DHT22;53635;48.212;11.530;2022-07-06T12:29:10;41.86;26.79
66724;DHT22;53635;48.212;11.530;2022-07-06T12:31:40;38.72;27.08
66724;DHT22;53635;48.212;11.530;2022-07-06T12:34:18;41.42;27.25
66724;DHT22;53635;48.212;11.530;2022-07-06T12:36:48;43.83;24.19
66724;DHT22;53635;48.212;11.530;2022-07-06T12:39:15;44.34;23.13
66724;DHT22;53635;48.212;11.530;2022-07-06T12:41:51;44.91;23.12
66724;DHT22;53635;48.212;11.530;2022-07-06T12:44:22;44.99;22.59
66724;DHT22;53635;48.212;11.530;2022-07-06T12:46:49;43.84;23.78
66724;DHT22;53635;48.212;11.530;2022-07-06T12:49:19;42.23;24.24
66724;DHT22;53635;48.212;11.530;2022-07-06T12:54:30;39.81;27.37
66724;DHT22;53635;48.212;11.530;2022-07-06T12:57:19;39.09;28.09
66724;DHT22;53635;48.212;11.530;2022-07-06T13:02:23;39.27;28.73
66724;DHT22;53635;48.212;11.530;2022-07-06T13:04:57;39.09;27.65
66724;DHT22;53635;48.212;11.530;2022-07-06T13:07:23;38.79;27.65
66724;DHT22;53635;48.212;11.530;2022-07-06T13:09:48;39.40;27.25
66724;DHT22;53635;48.212;11.530;2022-07-06T13:12:14;38.63;27.89
66724;DHT22;53635;48.212;11.530;2022-07-06T13:14:39;36.91;28.32
66724;DHT22;53635;48.212;11.530;2022-07-06T13:17:05;36.82;31.01
66724;DHT22;53635;48.212;11.530;2022-07-06T13:19:30;37.08;30.14
66724;DHT22;53635;48.212;11.530;2022-07-06T13:21:55;37.02;28.18
66724;DHT22;53635;48.212;11.530;2022-07-06T13:24:21;36.75;33.51
66724;DHT22;53635;48.212;11.530;2022-07-06T13:26:46;36.55;30.90
66724;DHT22;53635;48.212;11.530;2022-07-06T13:29:12;35.90;29.94
66724;DHT22;53635;48.212;11.530;2022-07-06T13:31:39;36.75;28.33
66724;DHT22;53635;48.212;11.530;2022-07-06T13:34:05;36.44;31.15
66724;DHT22;53635;48.212;11.530;2022-07-06T13:36:31;36.61;32.36
66724;DHT22;53635;48.212;11.530;2022-07-06T13:38:57;35.72;30.69
66724;DHT22;53635;48.212;11.530;2022-07-06T13:41:22;35.99;30.27
66724;DHT22;53635;48.212;11.530;2022-07-06T13:43:47;35.53;29.96
66724;DHT22;53635;48.212;11.530;2022-07-06T13:46:13;35.66;30.56
66724;DHT22;53635;48.212;11.530;2022-07-06T13:48:38;35.66;30.78
66724;DHT22;53635;48.212;11.530;2022-07-06T13:51:04;36.09;31.03
66724;DHT22;53635;48.212;11.530;2022-07-06T13:53:29;35.02;33.52
66724;DHT22;53635;48.212;11.530;2022-07-06T13:55:56;35.25;32.54
66724;DHT22;53635;48.212;11.530;2022-07-06T13:58:22;36.58;31.01
66724;DHT22;53635;48.212;11.530;2022-07-06T14:00:47;36.13;31.10
66724;DHT22;53635;48.212;11.530;2022-07-06T14:03:13;34.05;32.10
66724;DHT22;53635;48.212;11.530;2022-07-06T14:05:38;34.87;32.78
66724;DHT22;53635;48.212;11.530;2022-07-06T14:08:04;36.40;29.53
66724;DHT22;53635;48.212;11.530;2022-07-06T14:10:29;36.23;28.83
66724;DHT22;53635;48.212;11.530;2022-07-06T14:12:55;35.17;28.78
66724;DHT22;53635;48.212;11.530;2022-07-06T14:15:20;34.67;32.04
66724;DHT22;53635;48.212;11.530;2022-07-06T14:17:46;35.27;31.87
66724;DHT22;53635;48.212;11.530;2022-07-06T14:20:13;35.70;29.60
66724;DHT22;53635;48.212;11.530;2022-07-06T14:22:39;34.09;32.81
66724;DHT22;53635;48.212;11.530;2022-07-06T14:25:04;32.22;32.65
66724;DHT22;53635;48.212;11.530;2022-07-06T14:27:31;32.83;33.40
66724;DHT22;53635;48.212;11.530;2022-07-06T14:29:56;33.99;34.40
66724;DHT22;53635;48.212;11.530;2022-07-06T14:32:21;33.92;31.37
66724;DHT22;53635;48.212;11.530;2022-07-06T14:34:47;33.91;32.17
66724;DHT22;53635;48.212;11.530;2022-07-06T14:37:12;34.09;32.62
66724;DHT22;53635;48.212;11.530;2022-07-06T14:39:38;33.74;33.25
66724;DHT22;53635;48.212;11.530;2022-07-06T14:42:03;32.63;33.32
66724;DHT22;53635;48.212;11.530;2022-07-06T14:44:29;34.13;32.54
66724;DHT22;53635;48.212;11.530;2022-07-06T14:46:54;34.46;33.21
66724;DHT22;53635;48.212;11.530;2022-07-06T14:49:20;34.05;32.83
66724;DHT22;53635;48.212;11.530;2022-07-06T14:51:48;34.01;32.31
66724;DHT22;53635;48.212;11.530;2022-07-06T14:54:14;33.74;32.04
66724;DHT22;53635;48.212;11.530;2022-07-06T14:56:40;34.26;32.70
66724;DHT22;53635;48.212;11.530;2022-07-06T14:59:06;34.17;32.08
66724;DHT22;53635;48.212;11.530;2022-07-06T15:01:31;33.76;32.11
66724;DHT22;53635;48.212;11.530;2022-07-06T15:03:57;34.20;33.34
66724;DHT22;53635;48.212;11.530;2022-07-06T15:06:22;33.98;32.20
66724;DHT22;53635;48.212;11.530;2022-07-06T15:08:48;34.06;33.76
66724;DHT22;53635;48.212;11.530;2022-07-06T15:11:13;34.05;32.74
66724;DHT22;53635;48.212;11.530;2022-07-06T15:13:38;34.16;33.55
66724;DHT22;53635;48.212;11.530;2022-07-06T15:16:04;33.48;30.97
66724;DHT22;53635;48.212;11.530;2022-07-06T15:18:29;33.20;31.66
66724;DHT22;53635;48.212;11.530;2022-07-06T15:20:55;33.50;35.41
66724;DHT22;53635;48.212;11.530;2022-07-06T15:23:20;32.45;33.52
66724;DHT22;53635;48.212;11.530;2022-07-06T15:25:46;32.22;33.56
66724;DHT22;53635;48.212;11.530;2022-07-06T15:28:12;32.48;34.71